createdAt,value
2023-03-27T00:00:32.511Z,16.89
2023-03-27T00:05:37.401Z,16.82
2023-03-27T00:10:41.137Z,16.86
2023-03-27T00:15:44.774Z,16.83
2023-03-27T00:20:49.714Z,16.85
2023-03-27T00:25:53.349Z,16.82
2023-03-27T00:30:58.611Z,16.81
2023-03-27T00:36:03.846Z,16.82
2023-03-27T00:41:08.123Z,16.81
2023-03-27T00:46:27.974Z,16.86
2023-03-27T00:51:33.556Z,16.83
2023-03-27T00:56:38.936Z,16.82
2023-03-27T01:01:43.020Z,16.83
2023-03-27T01:06:48.807Z,16.84
2023-03-27T01:12:05.772Z,16.81
2023-03-27T01:17:22.875Z,16.79
2023-03-27T01:22:47.635Z,16.77
2023-03-27T01:28:18.381Z,16.75
2023-03-27T01:33:57.314Z,16.71
2023-03-27T01:39:19.472Z,16.71
2023-03-27T01:44:43.048Z,16.76
2023-03-27T01:49:53.616Z,16.72
2023-03-27T01:55:05.222Z,16.75
2023-03-27T02:00:17.615Z,16.67
2023-03-27T02:05:28.368Z,16.64
2023-03-27T02:10:36.914Z,16.71
2023-03-27T02:15:42.875Z,16.67
2023-03-27T02:20:46.330Z,16.71
2023-03-27T02:25:51.555Z,16.71
2023-03-27T02:31:06.984Z,16.76
2023-03-27T02:36:29.218Z,16.68
2023-03-27T02:41:38.537Z,16.71
2023-03-27T02:46:46.983Z,16.71
2023-03-27T02:51:54.719Z,16.70
2023-03-27T02:57:02.230Z,16.75
2023-03-27T03:02:07.424Z,16.74
2023-03-27T03:07:11.628Z,16.74
2023-03-27T03:12:16.462Z,16.77
2023-03-27T03:17:19.894Z,16.79
2023-03-27T03:22:23.536Z,16.76
2023-03-27T03:27:29.380Z,16.74
2023-03-27T03:32:34.315Z,16.77
2023-03-27T03:37:39.972Z,16.79
2023-03-27T03:42:48.206Z,16.73
2023-03-27T03:47:51.781Z,16.70
2023-03-27T03:52:55.265Z,16.70
2023-03-27T03:58:00.142Z,16.72
2023-03-27T04:03:04.877Z,16.74
2023-03-27T04:08:08.661Z,16.74
2023-03-27T04:13:13.583Z,16.88
2023-03-27T04:18:19.827Z,16.79
2023-03-27T04:23:23.439Z,16.77
2023-03-27T04:28:28.300Z,16.73
2023-03-27T04:33:31.815Z,16.73
2023-03-27T04:38:37.117Z,16.72
2023-03-27T04:43:42.150Z,16.88
2023-03-27T04:48:45.998Z,16.81
2023-03-27T04:53:49.505Z,16.67
2023-03-27T04:58:54.414Z,16.68
2023-03-27T05:03:58.139Z,16.68
2023-03-27T05:09:01.714Z,16.66
2023-03-27T05:14:07.212Z,16.64
2023-03-27T05:19:11.507Z,16.62
2023-03-27T05:24:15.640Z,16.74
2023-03-27T05:29:20.560Z,16.61
2023-03-27T05:34:24.044Z,16.58
2023-03-27T05:39:28.671Z,16.54
2023-03-27T05:44:33.550Z,16.57
2023-03-27T05:49:37.047Z,16.49
2023-03-27T05:54:40.510Z,16.45
2023-03-27T05:59:45.435Z,16.49
2023-03-27T06:04:49.146Z,16.43
2023-03-27T06:09:52.571Z,16.68
2023-03-27T06:14:57.465Z,16.52
2023-03-27T06:20:00.965Z,16.45
2023-03-27T06:25:06.042Z,16.51
2023-03-27T06:30:13.067Z,16.46
2023-03-27T06:35:16.866Z,16.47
2023-03-27T06:40:22.813Z,16.51
2023-03-27T06:45:30.120Z,16.52
2023-03-27T06:50:34.689Z,16.70
2023-03-27T06:55:38.289Z,16.68
2023-03-27T07:00:43.925Z,16.53
2023-03-27T07:05:49.289Z,16.46
2023-03-27T07:11:09.873Z,16.37
2023-03-27T07:16:16.777Z,16.31
2023-03-27T07:21:20.854Z,16.34
2023-03-27T07:26:24.341Z,16.39
2023-03-27T07:31:45.148Z,16.34
2023-03-27T07:36:52.845Z,16.38
2023-03-27T07:41:56.875Z,16.30
2023-03-27T07:47:02.116Z,16.29
2023-03-27T07:52:06.770Z,16.30
2023-03-27T07:57:11.570Z,16.34
2023-03-27T08:02:16.515Z,16.33
2023-03-27T08:07:21.818Z,16.34
2023-03-27T08:12:25.543Z,16.35
2023-03-27T08:17:31.775Z,16.37
2023-03-27T08:22:35.316Z,16.36
2023-03-27T08:27:38.840Z,16.37
2023-03-27T08:32:44.193Z,16.38
2023-03-27T08:37:48.622Z,16.38
2023-03-27T08:42:54.930Z,16.38
2023-03-27T08:48:02.686Z,16.40
2023-03-27T08:53:10.596Z,16.39
2023-03-27T08:58:19.772Z,16.41
2023-03-27T09:03:28.167Z,16.43
2023-03-27T09:08:42.435Z,16.45
2023-03-27T09:13:48.591Z,16.43
2023-03-27T09:18:59.699Z,16.44
2023-03-27T09:24:07.174Z,16.44
2023-03-27T09:29:20.311Z,16.44
2023-03-27T09:34:26.969Z,16.47
2023-03-27T09:39:32.815Z,16.47
2023-03-27T09:44:38.600Z,16.47
2023-03-27T09:49:48.228Z,16.48
2023-03-27T09:54:53.530Z,16.50
2023-03-27T09:59:59.812Z,16.51
2023-03-27T10:05:12.251Z,16.51
2023-03-27T10:10:20.177Z,16.53
2023-03-27T10:15:33.174Z,16.52
2023-03-27T10:20:38.180Z,16.52
2023-03-27T10:25:50.958Z,16.52
2023-03-27T10:31:00.136Z,16.52
2023-03-27T10:36:06.440Z,16.53
2023-03-27T10:41:15.183Z,16.53
2023-03-27T10:46:21.982Z,16.55
2023-03-27T10:51:45.417Z,16.50
2023-03-27T10:56:55.185Z,16.53
2023-03-27T11:02:02.492Z,16.55
2023-03-27T11:07:08.606Z,16.55
2023-03-27T11:12:14.554Z,16.55
2023-03-27T11:17:20.113Z,16.54
2023-03-27T11:22:28.786Z,16.57
2023-03-27T11:27:35.913Z,16.56
2023-03-27T11:32:44.109Z,16.56
2023-03-27T11:37:52.249Z,16.56
2023-03-27T11:42:55.792Z,16.58
2023-03-27T11:48:15.754Z,16.55
2023-03-27T11:53:37.032Z,16.55
2023-03-27T11:58:42.739Z,16.57
2023-03-27T12:04:18.528Z,16.57
2023-03-27T12:09:37.765Z,16.55
2023-03-27T12:14:51.998Z,16.56
2023-03-27T12:20:17.486Z,16.55
2023-03-27T12:25:44.412Z,16.58
2023-03-27T12:30:52.508Z,16.60
2023-03-27T12:35:58.934Z,16.58
2023-03-27T12:41:07.019Z,16.58
2023-03-27T12:46:17.471Z,16.58
2023-03-27T12:51:22.023Z,16.57
2023-03-27T12:56:37.510Z,16.57
2023-03-27T13:02:17.482Z,16.57
2023-03-27T13:07:26.307Z,16.56
2023-03-27T13:12:45.283Z,16.54
2023-03-27T13:17:57.590Z,16.57
2023-03-27T13:23:10.300Z,16.54
2023-03-27T13:28:32.832Z,16.55
2023-03-27T13:33:46.106Z,16.55
2023-03-27T13:39:15.712Z,16.54
2023-03-27T13:44:24.046Z,16.53
2023-03-27T13:49:38.179Z,16.55
2023-03-27T13:54:54.613Z,16.58
2023-03-27T14:00:29.823Z,16.54
2023-03-27T14:06:00.708Z,16.56
2023-03-27T14:11:26.383Z,16.58
2023-03-27T14:16:46.282Z,16.58
2023-03-27T14:21:52.564Z,16.59
2023-03-27T14:26:57.924Z,16.62
2023-03-27T14:32:06.814Z,16.60
2023-03-27T14:37:23.987Z,16.57
2023-03-27T14:42:32.067Z,16.58
2023-03-27T14:47:37.978Z,16.56
2023-03-27T14:52:41.631Z,16.59
2023-03-27T14:57:45.446Z,16.59
2023-03-27T15:02:52.354Z,16.58
2023-03-27T15:07:56.006Z,16.60
2023-03-27T15:12:59.938Z,16.59
2023-03-27T15:18:05.673Z,16.61
2023-03-27T15:23:15.063Z,16.63
2023-03-27T15:28:23.873Z,16.59
2023-03-27T15:33:34.718Z,16.66
2023-03-27T15:38:38.595Z,16.56
2023-03-27T15:43:42.103Z,16.58
2023-03-27T15:48:51.040Z,16.58
2023-03-27T15:53:56.446Z,16.60
2023-03-27T15:59:01.325Z,16.67
2023-03-27T16:04:09.291Z,16.61
2023-03-27T16:09:23.922Z,16.62
2023-03-27T16:14:32.005Z,16.76
2023-03-27T16:19:44.345Z,16.73
2023-03-27T16:24:47.888Z,16.73
2023-03-27T16:29:51.768Z,16.69
2023-03-27T16:34:56.698Z,16.75
2023-03-27T16:40:00.255Z,16.80
2023-03-27T16:45:05.388Z,16.73
2023-03-27T16:50:17.237Z,16.71
2023-03-27T16:55:20.745Z,16.76
2023-03-27T17:00:26.865Z,16.73
2023-03-27T17:05:34.564Z,16.74
2023-03-27T17:10:38.306Z,16.74
2023-03-27T17:15:41.770Z,16.74
2023-03-27T17:20:46.854Z,16.72
2023-03-27T17:25:50.475Z,16.76
2023-03-27T17:31:03.840Z,16.80
2023-03-27T17:36:11.390Z,16.77
2023-03-27T17:41:17.536Z,16.80
2023-03-27T17:46:21.772Z,16.77
2023-03-27T17:51:26.703Z,16.81
2023-03-27T17:56:30.160Z,16.82
2023-03-27T18:01:33.768Z,16.83
2023-03-27T18:06:38.711Z,16.80
2023-03-27T18:11:42.196Z,16.82
2023-03-27T18:16:45.721Z,16.84
2023-03-27T18:21:50.647Z,16.81
2023-03-27T18:26:54.172Z,16.80
2023-03-27T18:31:57.716Z,16.80
2023-03-27T18:37:02.645Z,16.80
2023-03-27T18:42:06.350Z,16.81
2023-03-27T18:47:09.943Z,16.83
2023-03-27T18:52:15.033Z,16.81
2023-03-27T18:57:20.055Z,16.82
2023-03-27T19:02:23.689Z,16.79
2023-03-27T19:07:28.602Z,16.76
2023-03-27T19:12:32.141Z,16.76
2023-03-27T19:17:35.685Z,16.77
2023-03-27T19:22:40.575Z,16.78
2023-03-27T19:27:44.420Z,16.79
2023-03-27T19:32:47.941Z,16.77
2023-03-27T19:37:54.157Z,16.76
2023-03-27T19:42:57.599Z,16.74
2023-03-27T19:48:01.130Z,16.73
2023-03-27T19:53:08.975Z,16.72
2023-03-27T19:58:12.765Z,16.75
2023-03-27T20:03:17.032Z,16.74
2023-03-27T20:08:22.603Z,16.74
2023-03-27T20:13:26.170Z,16.76
2023-03-27T20:18:32.792Z,16.76
2023-03-27T20:23:38.712Z,16.75
2023-03-27T20:28:42.188Z,16.75
2023-03-27T20:33:45.703Z,16.76
2023-03-27T20:38:52.947Z,16.79
2023-03-27T20:43:58.936Z,16.79
2023-03-27T20:49:03.722Z,16.80
2023-03-27T20:54:10.271Z,16.81
2023-03-27T20:59:14.640Z,16.82
2023-03-27T21:04:18.143Z,16.83
2023-03-27T21:09:23.069Z,16.84
2023-03-27T21:14:26.683Z,16.84
2023-03-27T21:19:30.298Z,16.86
2023-03-27T21:24:35.455Z,16.86
2023-03-27T21:29:39.244Z,16.86
2023-03-27T21:34:43.245Z,16.85
2023-03-27T21:39:48.344Z,16.86
2023-03-27T21:44:54.992Z,16.83
2023-03-27T21:50:00.327Z,16.88
2023-03-27T21:55:05.818Z,16.87
2023-03-27T22:00:10.639Z,16.87
2023-03-27T22:05:14.361Z,16.86
2023-03-27T22:10:19.707Z,16.88
2023-03-27T22:15:23.529Z,16.87
2023-03-27T22:20:27.782Z,16.88
2023-03-27T22:25:32.849Z,16.90
2023-03-27T22:30:36.543Z,16.89
2023-03-27T22:35:40.305Z,16.88
2023-03-27T22:40:45.656Z,16.90
2023-03-27T22:45:49.340Z,16.89
2023-03-27T22:50:56.706Z,16.93
2023-03-27T22:56:02.533Z,16.91
2023-03-27T23:01:07.609Z,16.92
2023-03-27T23:06:18.155Z,16.92
2023-03-27T23:11:23.713Z,16.94
2023-03-27T23:16:27.552Z,16.90
2023-03-27T23:21:31.473Z,16.99
2023-03-27T23:26:37.639Z,16.93
2023-03-27T23:31:41.342Z,17.01
2023-03-27T23:36:44.879Z,16.97
2023-03-27T23:41:49.768Z,16.96
2023-03-27T23:46:53.223Z,16.94
2023-03-27T23:51:56.715Z,16.93
2023-03-27T23:57:01.801Z,16.92
